METAR Data
IDs: Format: Raw Decoded Include TAF

Data at: 1429 UTC 10 Aug 2022

KMHS 101356Z AUTO 00000KT 10SM CLR 15/04 A3010 RMK AO2 SLP179 T01500044
KMHS 101256Z AUTO 00000KT 10SM CLR 16/04 A3008 RMK AO2 SLP171 T01560044
KMHS 101156Z AUTO 00000KT 10SM CLR 16/06 A3007 RMK AO2 SLP165 T01610056 10200 20150 52002
KMHS 101056Z AUTO 00000KT 10SM CLR 17/06 A3006 RMK AO2 SLP162 T01670056
KMHS 100956Z AUTO 00000KT 10SM CLR 17/05 A3007 RMK AO2 SLP162 T01720050
KMHS 100856Z AUTO VRB03KT 10SM CLR 18/04 A3006 RMK AO2 SLP160 T01830039 50007
KMHS 100756Z AUTO VRB03KT 10SM CLR 19/03 A3006 RMK AO2 SLP160 T01940033 403110106
KMHS 100656Z AUTO 00000KT 10SM CLR 19/02 A3006 RMK AO2 SLP157 T01940017
KMHS 100556Z AUTO 00000KT 10SM CLR 20/02 A3004 RMK AO2 SLP154 T02000017 10278 20189 51018
KMHS 100456Z AUTO 00000KT 10SM CLR 20/02 A3003 RMK AO2 SLP151 T02000022
KMHS 100356Z AUTO 00000KT 10SM CLR 21/02 A3001 RMK AO2 SLP146 T02060022
KMHS 100256Z AUTO 00000KT 10SM CLR 23/03 A2998 RMK AO2 SLP142 T02280028 53002
KMHS 100156Z AUTO 00000KT 10SM CLR 26/01 A2997 RMK AO2 SLP139 T02560011
KMHS 100056Z AUTO 00000KT 10SM CLR 27/02 A2998 RMK AO2 SLP141 T02720017
KMHS 092356Z AUTO VRB03KT 10SM CLR 28/04 A2998 RMK AO2 SLP140 T02780039 10311 20267 56011
KMHS 092256Z AUTO VRB03KT 10SM CLR 29/05 A2999 RMK AO2 SLP140 T02940050
KMHS 092156Z AUTO 00000KT 10SM CLR 30/06 A3000 RMK AO2 SLP141 T03000061
KMHS 092056Z AUTO 10SM CLR 30/06 A3001 RMK AO2 SLP146 T03000061 58008
KMHS 091956Z AUTO 00000KT 10SM CLR 29/07 A3002 RMK AO2 SLP153 T02890067
KMHS 091856Z AUTO 12004KT 10SM CLR 29/06 A3004 RMK AO2 SLP158 T02890056
KMHS 091756Z AUTO 00000KT 10SM CLR 27/06 A3004 RMK AO2 SLP159 T02670061 10267 20106 58001
KMHS 091656Z AUTO 00000KT 10SM CLR 26/07 A3004 RMK AO2 SLP159 T02560067
KMHS 091556Z AUTO 00000KT 10SM CLR 22/09 A3005 RMK AO2 SLP162 T02220089
KMHS 091456Z AUTO 00000KT 10SM CLR 16/07 A3004 RMK AO2 SLP162 T01610067 53004
KMHS 091356Z AUTO 00000KT 10SM CLR 11/04 A3004 RMK AO2 SLP162 T01110039
KMHS 091256Z AUTO 00000KT 10SM CLR 11/04 A3003 RMK AO2 SLP161 T01060039
KMHS 091156Z AUTO 00000KT 10SM FEW120 11/04 A3003 RMK AO2 SLP155 T01110039 10156 20111 56005
KMHS 091056Z AUTO 00000KT 10SM CLR 12/03 A3003 RMK AO2 SLP155 T01220033
KMHS 090956Z AUTO 00000KT 10SM CLR 14/02 A3004 RMK AO2 SLP153 T01390022
KMHS 090856Z AUTO 00000KT 10SM CLR 14/03 A3005 RMK AO2 SLP157 T01390033 58002
KMHS 090756Z AUTO 00000KT 10SM SCT110 13/05 A3007 RMK AO2 SLP164 T01330050 403280133
KMHS 090656Z AUTO 00000KT 10SM BKN110 14/05 A3006 RMK AO2 SLP164 T01390050
KMHS 090556Z AUTO 00000KT 10SM CLR 16/05 A3006 RMK AO2 SLP163 T01560050 10306 20156 50010
KMHS 090456Z AUTO 00000KT 10SM CLR 16/07 A3006 RMK AO2 SLP164 T01610067
KMHS 090356Z AUTO 00000KT 10SM CLR 19/06 A3004 RMK AO2 SLP160 T01890061
KMHS 090256Z AUTO 00000KT 10SM CLR 23/03 A3002 RMK AO2 SLP153 T02330028 53001